Hlavní strana
METAR-TAF:

METAR-TAF

Letiště :

Tunis, Tunisko

zeměpisná šířka: 36-50N, zeměpisná délka: 010-14E, výška: 3 m

Aktuální stav počasí

Zpráva byla vytvořena před 20 minutami, v 10:00 UTC
Severoseverovýchodní vítr 9 kt, proměnlivý mezi severoseverozápadním a východoseverovýchodním
Teplota 15°C
Vlhkost vzduchu 44%
Tlak 1030 hPa
Viditelnost 10 km a více
Skoro jasno ve výšce 2600 ft

METAR: DTTA 161000Z 02009KT 340V060 9999 FEW026 15/03 Q1030 NOSIG

Čas: 11:20 (10:20 UTC)

Předpověď počasí

Zpráva byla vytvořena před 5 hodinami a 20 minutami, v 05:00 UTC
Předpověď platná od 16 v 06 UTC do 17 v 06 UTC
Severovýchodní vítr 10 kt
Viditelnost 10 km a více
Skoro jasno ve výšce 2300 ft
Změna
od 16 v 10 UTC do 16 v 12 UTC
Severovýchodní vítr 5 kt
Změna
od 16 v 22 UTC do 16 v 24 UTC
Jihojihozápadní vítr 10 kt

TAF: DTTA 160500Z 1606/1706 04010KT 9999 FEW023 BECMG 1610/1612 05005KT BECMG 1622/1624 20010KT

Stav a předpovědi počasí z více než 4 000 letišť (zprávy METAR a TAF).

Červené a žluté tečky na mapě představují dostupné meteorologické stanice.

Když kurzor umístíte na tečku, zobrazí se název stanice.

Pak kliknutím zobrazíte stav a předpověď počasí.

Chcete-li změnit mapu, kliknutím na zelené tlačítko se znaménkem +mapu přiblížíte, kliknutím na zelené tlačítko se znaménkem – mapu oddálíte a kliknutím na zelené šipky přejdete na sousední mapy.


METAR-TAF: